Time;durP1;ratioP1;P1;durP2;ratioP2;P2;SDS_P1;SDS_P2;PMS_P1;PMS_P2;Temp;Humidity;BMP_temperature;BMP_pressure;BME280_temperature;BME280_humidity;BME280_pressure;Samples;Min_cycle;Max_cycle;Signal;HPM_P1;HPM_P2
2022/07/22 00:01:44;;;;;;;5.40;4.97;;;;;;;25.02;69.52;99358.75;5069455;28;20306;-66
2022/07/22 00:04:11;;;;;;;5.70;5.30;;;;;;;25.02;69.48;99354.25;5069490;28;20206;-66
2022/07/22 00:06:38;;;;;;;6.03;5.55;;;;;;;25.02;69.57;99354.25;5069185;28;20200;-66
2022/07/22 00:09:07;;;;;;;5.78;5.30;;;;;;;25.10;69.30;99362.38;5069434;28;20291;-67
2022/07/22 00:11:34;;;;;;;5.80;5.00;;;;;;;25.05;69.77;99359.31;5069347;28;20279;-66
2022/07/22 00:14:01;;;;;;;8.30;5.15;;;;;;;24.93;70.07;99369.22;5069438;28;20657;-67
2022/07/22 00:16:27;;;;;;;7.20;5.32;;;;;;;24.84;70.54;99371.81;5083989;28;20202;-66
2022/07/22 00:18:55;;;;;;;5.07;4.78;;;;;;;24.82;70.78;99376.44;5089504;28;20197;-65
2022/07/22 00:21:21;;;;;;;5.95;5.03;;;;;;;24.79;70.81;99371.41;5089549;28;20199;-66
2022/07/22 00:23:48;;;;;;;5.57;5.10;;;;;;;24.81;70.79;99372.94;5089783;28;20219;-65
2022/07/22 00:26:17;;;;;;;8.38;5.22;;;;;;;24.89;70.50;99372.25;5089614;28;20601;-65
2022/07/22 00:28:44;;;;;;;6.30;5.75;;;;;;;24.94;70.15;99384.16;5089635;28;20561;-67
2022/07/22 00:31:11;;;;;;;6.10;5.13;;;;;;;24.94;70.05;99373.53;5089523;28;20209;-57
2022/07/22 00:33:37;;;;;;;5.75;5.10;;;;;;;24.90;70.00;99372.13;5089215;28;20199;-58
2022/07/22 00:36:06;;;;;;;6.80;5.65;;;;;;;24.99;69.84;99365.16;5089491;28;20205;-57
2022/07/22 00:38:33;;;;;;;9.05;5.30;;;;;;;25.05;69.47;99369.94;5089444;28;20688;-57
2022/07/22 00:41:00;;;;;;;12.68;5.97;;;;;;;24.97;69.80;99372.41;5089325;28;20203;-57
2022/07/22 00:43:28;;;;;;;7.20;5.82;;;;;;;24.94;70.11;99372.72;5089384;28;20735;-67
2022/07/22 00:45:55;;;;;;;5.70;5.20;;;;;;;25.03;69.76;99382.50;5092255;28;20195;-56
2022/07/22 00:48:22;;;;;;;5.18;4.88;;;;;;;25.00;69.65;99377.47;5092888;28;20227;-57
2022/07/22 00:50:49;;;;;;;7.95;5.93;;;;;;;24.96;69.76;99376.88;5093288;28;20582;-57
2022/07/22 00:53:17;;;;;;;5.43;4.93;;;;;;;24.95;69.79;99375.22;5093222;28;20613;-56
2022/07/22 00:55:44;;;;;;;6.55;5.65;;;;;;;24.72;70.88;99370.28;5092981;28;20268;-56
2022/07/22 00:58:11;;;;;;;8.35;5.22;;;;;;;24.67;71.50;99372.50;5093117;28;20199;-56
2022/07/22 01:00:39;;;;;;;6.25;5.40;;;;;;;24.67;71.56;99380.47;5093058;28;20613;-56
2022/07/22 01:03:06;;;;;;;8.07;5.40;;;;;;;24.70;71.36;99370.41;5092897;28;20227;-56
2022/07/22 01:05:33;;;;;;;6.47;5.13;;;;;;;24.63;71.72;99369.28;5092981;28;20235;-56
2022/07/22 01:08:00;;;;;;;7.82;5.57;;;;;;;24.70;71.36;99374.88;5093060;28;20589;-56
2022/07/22 01:10:27;;;;;;;7.47;5.82;;;;;;;24.70;71.34;99381.03;5093008;28;20199;-56
2022/07/22 01:12:54;;;;;;;13.80;5.97;;;;;;;24.69;71.04;99381.16;5092912;28;20198;-56
2022/07/22 01:15:21;;;;;;;6.40;5.80;;;;;;;24.67;70.86;99385.78;5092671;28;20220;-66
2022/07/22 01:17:49;;;;;;;12.43;6.13;;;;;;;24.67;70.97;99380.47;5092509;28;20203;-65
2022/07/22 01:20:18;;;;;;;9.10;6.03;;;;;;;24.63;70.59;99379.03;5092860;28;20757;-67
2022/07/22 01:22:45;;;;;;;6.65;5.95;;;;;;;24.62;70.93;99383.50;5092662;28;20708;-66
2022/07/22 01:25:12;;;;;;;6.72;6.07;;;;;;;24.58;71.06;99382.97;5092440;28;20286;-56
2022/07/22 01:27:39;;;;;;;7.03;6.43;;;;;;;24.62;70.92;99386.16;5092316;28;20206;-66
2022/07/22 01:30:07;;;;;;;9.15;5.97;;;;;;;24.65;71.01;99385.06;5092101;28;20283;-67
2022/07/22 01:32:34;;;;;;;7.88;5.60;;;;;;;24.59;71.25;99379.34;5092372;28;20199;-67
2022/07/22 01:35:01;;;;;;;6.13;5.53;;;;;;;24.73;70.06;99385.22;5092419;28;20199;-67
2022/07/22 01:37:30;;;;;;;5.90;5.30;;;;;;;24.72;70.19;99378.25;5092314;28;20282;-65
2022/07/22 01:39:56;;;;;;;6.82;6.05;;;;;;;24.69;70.01;99389.13;5092166;28;20206;-66
2022/07/22 01:42:23;;;;;;;10.85;6.20;;;;;;;24.59;70.43;99374.03;5091853;28;20215;-65
2022/07/22 01:44:51;;;;;;;11.68;6.30;;;;;;;24.63;70.23;99374.56;5091729;28;20203;-65
2022/07/22 01:47:17;;;;;;;7.88;5.57;;;;;;;24.65;70.01;99377.94;5091762;28;20241;-65
2022/07/22 01:49:45;;;;;;;6.00;5.50;;;;;;;24.58;70.69;99372.34;5092131;28;20199;-65
2022/07/22 01:52:12;;;;;;;6.57;6.10;;;;;;;24.61;70.24;99366.75;5092058;28;20282;-66
2022/07/22 01:54:40;;;;;;;6.40;5.90;;;;;;;24.54;71.13;99368.28;5092051;28;20715;-66
2022/07/22 01:57:07;;;;;;;7.85;5.78;;;;;;;24.46;71.61;99367.28;5090657;28;20221;-65
2022/07/22 01:59:34;;;;;;;7.00;5.68;;;;;;;24.45;71.62;99365.59;5091848;28;20333;-65
2022/07/22 02:02:01;;;;;;;9.05;5.38;;;;;;;24.40;72.09;99373.13;5091744;28;20191;-66
2022/07/22 02:04:28;;;;;;;6.25;5.55;;;;;;;24.44;72.08;99366.59;5091935;28;20214;-66
2022/07/22 02:06:55;;;;;;;5.65;5.07;;;;;;;24.48;71.56;99376.81;5091751;28;20199;-67
2022/07/22 02:09:22;;;;;;;8.30;5.80;;;;;;;24.50;72.01;99374.81;5091744;28;20199;-66
2022/07/22 02:11:50;;;;;;;7.75;5.78;;;;;;;24.50;71.92;99358.06;5091592;28;20672;-64
2022/07/22 02:14:17;;;;;;;6.78;6.10;;;;;;;24.43;72.30;99362.25;5091703;28;20205;-64
2022/07/22 02:16:44;;;;;;;12.07;5.57;;;;;;;24.35;72.48;99360.28;5091743;28;20680;-64
2022/07/22 02:19:11;;;;;;;10.45;5.75;;;;;;;24.35;72.96;99362.09;5091468;28;20668;-56
2022/07/22 02:21:38;;;;;;;11.30;5.78;;;;;;;24.22;73.30;99354.38;5091481;28;20290;-65
2022/07/22 02:24:06;;;;;;;6.30;5.80;;;;;;;24.26;73.55;99358.44;5091420;28;20226;-65
2022/07/22 02:26:33;;;;;;;9.90;5.97;;;;;;;24.27;73.69;99362.75;5091870;28;20199;-66
2022/07/22 02:29:01;;;;;;;8.70;5.55;;;;;;;24.29;73.60;99365.28;5091440;28;20242;-66
2022/07/22 02:31:28;;;;;;;7.82;5.68;;;;;;;24.20;73.45;99361.59;5091572;28;20286;-65
2022/07/22 02:33:55;;;;;;;7.35;6.28;;;;;;;24.05;73.50;99358.44;5091408;28;20658;-66
2022/07/22 02:36:22;;;;;;;7.32;6.78;;;;;;;23.89;74.37;99358.94;5091356;28;20590;-65
2022/07/22 02:38:49;;;;;;;7.10;6.40;;;;;;;23.87;74.62;99358.25;5090886;28;20205;-64
2022/07/22 02:41:16;;;;;;;8.40;6.45;;;;;;;23.77;74.90;99352.06;5091182;28;20203;-67
2022/07/22 02:43:43;;;;;;;10.57;6.32;;;;;;;23.79;74.92;99350.13;5090622;28;20284;-66
2022/07/22 02:46:11;;;;;;;8.15;6.93;;;;;;;23.81;74.90;99348.19;5078813;28;20278;-66
2022/07/22 02:48:38;;;;;;;7.68;6.97;;;;;;;23.75;75.35;99361.09;5078514;28;20224;-67
2022/07/22 02:51:05;;;;;;;6.63;6.20;;;;;;;23.63;75.68;99348.91;5079413;28;20234;-66
2022/07/22 02:53:32;;;;;;;7.68;6.97;;;;;;;23.60;75.67;99346.50;5080404;28;20205;-66
2022/07/22 02:55:59;;;;;;;8.18;7.30;;;;;;;23.53;75.96;99351.50;5078884;28;20202;-66
2022/07/22 02:58:26;;;;;;;9.30;7.03;;;;;;;23.49;76.50;99347.38;5079117;28;20721;-67
2022/07/22 03:00:53;;;;;;;7.93;7.32;;;;;;;23.41;77.94;99342.75;5080131;28;20198;-67
2022/07/22 03:03:22;;;;;;;11.80;6.47;;;;;;;23.44;78.18;99345.13;5078618;28;20223;-65
2022/07/22 03:05:48;;;;;;;14.15;8.07;;;;;;;23.44;78.23;99344.28;5078737;28;20198;-64
2022/07/22 03:08:15;;;;;;;8.75;7.93;;;;;;;23.49;77.89;99339.44;5080025;28;20579;-55
2022/07/22 03:10:42;;;;;;;10.25;8.63;;;;;;;23.55;77.85;99343.41;5078657;28;20202;-56
2022/07/22 03:13:09;;;;;;;12.32;9.32;;;;;;;23.45;78.48;99345.97;5078393;28;20206;-64
2022/07/22 03:15:36;;;;;;;10.23;9.30;;;;;;;23.39;79.11;99349.13;5080123;28;20199;-67
2022/07/22 03:18:03;;;;;;;11.48;9.88;;;;;;;23.40;79.29;99351.66;5072663;28;20196;-65
2022/07/22 03:20:33;;;;;;;10.10;9.30;;;;;;;23.35;79.83;99355.66;5074810;28;20199;-65
2022/07/22 03:23:00;;;;;;;12.50;9.05;;;;;;;23.31;79.98;99347.13;5079290;28;20220;-66
2022/07/22 03:25:27;;;;;;;16.45;9.30;;;;;;;23.33;80.20;99360.25;5077954;28;20287;-65
2022/07/22 03:27:54;;;;;;;10.90;9.80;;;;;;;23.39;79.70;99362.38;5076280;28;20223;-68
2022/07/22 03:30:21;;;;;;;14.02;10.35;;;;;;;23.36;80.27;99370.59;5095977;28;20237;-68
2022/07/22 03:32:48;;;;;;;17.33;9.85;;;;;;;23.24;80.76;99355.72;5109159;28;20722;-69
2022/07/22 03:35:17;;;;;;;11.20;10.18;;;;;;;23.20;81.12;99360.44;5108661;28;20308;-68
2022/07/22 03:37:45;;;;;;;13.43;9.68;;;;;;;23.25;81.31;99360.88;5107800;28;20305;-67
2022/07/22 03:40:14;;;;;;;11.15;9.10;;;;;;;23.31;81.12;99365.69;5078894;28;20226;-65
2022/07/22 03:42:41;;;;;;;17.38;9.63;;;;;;;23.26;82.00;99361.72;5078249;28;20284;-67
2022/07/22 03:45:10;;;;;;;10.10;9.23;;;;;;;23.34;81.67;99368.06;5079372;28;20345;-67
2022/07/22 03:47:37;;;;;;;11.95;9.68;;;;;;;23.38;81.49;99363.34;5083673;28;20234;-66
2022/07/22 03:50:05;;;;;;;14.63;10.93;;;;;;;23.59;79.98;99361.56;5081462;28;20223;-66
2022/07/22 03:52:32;;;;;;;19.10;10.82;;;;;;;23.78;78.83;99361.69;5068469;28;20216;-64
2022/07/22 03:55:00;;;;;;;34.92;10.13;;;;;;;23.81;78.78;99372.03;5088951;28;20223;-66
2022/07/22 03:57:29;;;;;;;42.78;11.90;;;;;;;24.01;77.51;99372.13;5088669;28;20335;-65
2022/07/22 03:59:56;;;;;;;28.92;11.63;;;;;;;24.85;73.65;99369.03;5099361;28;20325;-65
2022/07/22 04:02:22;;;;;;;18.13;12.10;;;;;;;26.06;67.29;99385.31;5109365;28;20232;-63
2022/07/22 04:04:49;;;;;;;22.92;11.90;;;;;;;27.16;62.21;99404.78;5109027;28;20230;-64
2022/07/22 04:07:16;;;;;;;13.05;11.77;;;;;;;28.06;58.37;99406.31;5108787;28;20221;-62
2022/07/22 04:09:43;;;;;;;13.07;11.73;;;;;;;28.76;55.87;99393.63;5109133;28;20305;-64
2022/07/22 04:12:11;;;;;;;15.13;11.10;;;;;;;29.70;52.54;99398.56;5109215;28;20300;-63
2022/07/22 04:14:38;;;;;;;17.92;10.82;;;;;;;30.37;50.41;99399.09;5096907;28;20212;-59
2022/07/22 04:17:05;;;;;;;22.15;10.63;;;;;;;30.86;48.71;99397.88;5069199;28;20760;-56
2022/07/22 04:19:32;;;;;;;20.80;10.55;;;;;;;31.25;47.26;99407.72;5069643;28;20228;-55
2022/07/22 04:21:59;;;;;;;12.00;9.35;;;;;;;31.59;46.27;99401.91;5073236;28;20667;-53
2022/07/22 04:24:26;;;;;;;18.58;10.43;;;;;;;32.35;44.27;99404.34;5072722;28;20314;-54
2022/07/22 04:26:53;;;;;;;16.48;11.07;;;;;;;33.31;41.92;99405.06;5072494;28;20729;-54
2022/07/22 04:29:21;;;;;;;24.08;11.70;;;;;;;34.00;40.58;99403.34;5079624;28;20215;-54
2022/07/22 04:31:48;;;;;;;20.33;10.88;;;;;;;34.39;39.41;99408.19;5075200;28;20234;-55
2022/07/22 04:34:15;;;;;;;17.05;10.48;;;;;;;35.10;37.37;99408.69;5072758;28;20218;-55
2022/07/22 04:36:42;;;;;;;16.73;10.55;;;;;;;35.32;36.86;99409.34;5072823;28;20261;-55
2022/07/22 04:39:09;;;;;;;12.05;10.02;;;;;;;35.54;36.49;99420.78;5073278;28;20719;-53
2022/07/22 04:41:36;;;;;;;20.92;10.45;;;;;;;36.26;35.45;99420.75;5072026;28;20262;-54
2022/07/22 04:44:03;;;;;;;15.63;9.75;;;;;;;36.80;34.28;99426.84;5072745;28;20237;-53
2022/07/22 04:46:31;;;;;;;20.38;10.55;;;;;;;37.34;33.80;99420.91;5072705;28;20212;-54
2022/07/22 04:48:58;;;;;;;12.95;10.35;;;;;;;36.80;33.89;99427.63;5072513;28;20648;-55
2022/07/22 04:51:25;;;;;;;18.80;10.10;;;;;;;36.69;33.84;99433.72;5072287;28;20298;-55
2022/07/22 04:53:52;;;;;;;13.90;10.10;;;;;;;36.40;34.08;99431.53;5072430;28;20249;-54
2022/07/22 04:56:19;;;;;;;16.17;10.82;;;;;;;36.30;34.73;99435.50;5071589;28;20237;-54
2022/07/22 04:58:46;;;;;;;18.27;11.45;;;;;;;35.76;35.55;99430.38;5073490;28;20220;-55
2022/07/22 05:01:12;;;;;;;13.43;10.43;;;;;;;35.78;35.06;99422.88;5113078;28;20218;-55
2022/07/22 05:03:42;;;;;;;22.02;11.55;;;;;;;35.88;35.19;99420.59;5095706;27;20215;-55
2022/07/22 05:06:09;;;;;;;23.58;12.38;;;;;;;36.56;34.18;99431.91;5091474;28;20257;-54
2022/07/22 05:08:37;;;;;;;21.05;11.88;;;;;;;36.59;33.90;99417.09;5091815;28;20648;-54
2022/07/22 05:11:04;;;;;;;27.25;12.05;;;;;;;36.62;34.02;99412.09;5091630;28;20226;-54
2022/07/22 05:13:31;;;;;;;21.30;11.38;;;;;;;36.57;33.94;99428.13;5091687;28;20219;-54
2022/07/22 05:15:58;;;;;;;16.63;11.82;;;;;;;37.06;33.22;99421.25;5092394;28;20223;-55
2022/07/22 05:18:25;;;;;;;22.55;11.23;;;;;;;37.58;32.28;99427.41;5092010;28;20219;-56
2022/07/22 05:20:53;;;;;;;26.38;11.45;;;;;;;38.37;31.01;99422.06;5091892;28;20305;-55
2022/07/22 05:23:20;;;;;;;22.33;11.30;;;;;;;38.46;30.63;99420.72;5091997;28;20222;-56
2022/07/22 05:25:49;;;;;;;20.48;10.93;;;;;;;38.47;31.30;99422.38;5091567;28;20227;-57
2022/07/22 05:28:16;;;;;;;16.30;10.75;;;;;;;38.71;30.83;99423.38;5091489;28;20258;-55
2022/07/22 05:30:43;;;;;;;17.02;10.90;;;;;;;38.62;30.73;99424.72;5108825;28;20752;-62
2022/07/22 05:33:10;;;;;;;19.88;10.60;;;;;;;38.74;30.90;99425.59;5112124;28;20298;-60
2022/07/22 05:35:37;;;;;;;19.15;10.93;;;;;;;38.57;30.97;99424.56;5112012;28;20222;-62
2022/07/22 05:38:05;;;;;;;16.65;10.80;;;;;;;38.88;30.38;99417.28;5074546;28;20215;-55
2022/07/22 05:40:33;;;;;;;16.88;11.05;;;;;;;39.01;29.86;99428.00;5070773;28;20227;-56
2022/07/22 05:43:00;;;;;;;18.80;11.07;;;;;;;38.51;30.63;99417.31;5071285;28;20230;-56
2022/07/22 05:45:26;;;;;;;14.20;10.77;;;;;;;38.24;31.42;99422.22;5076594;28;20264;-56
2022/07/22 05:47:53;;;;;;;18.60;10.63;;;;;;;38.93;30.93;99422.88;5071075;28;20628;-55
2022/07/22 05:50:20;;;;;;;14.77;10.95;;;;;;;38.39;30.44;99405.56;5075162;28;20310;-55
2022/07/22 05:52:47;;;;;;;17.75;10.90;;;;;;;38.73;31.12;99413.09;5082542;28;20245;-55
2022/07/22 05:55:16;;;;;;;14.90;10.73;;;;;;;39.30;29.43;99418.16;5084878;28;20215;-56
2022/07/22 05:57:43;;;;;;;17.13;11.85;;;;;;;39.39;29.67;99414.88;5071306;28;20793;-56
2022/07/22 06:00:11;;;;;;;20.40;10.65;;;;;;;39.58;29.50;99420.25;5094924;28;20225;-57
2022/07/22 06:02:38;;;;;;;23.05;10.48;;;;;;;39.87;28.81;99419.34;5110439;28;20226;-62
2022/07/22 06:05:05;;;;;;;15.48;9.68;;;;;;;40.45;28.33;99415.75;5111711;28;20623;-62
2022/07/22 06:07:32;;;;;;;23.95;11.32;;;;;;;40.60;27.99;99411.47;5111910;28;20257;-62
2022/07/22 06:09:59;;;;;;;20.00;11.60;;;;;;;39.26;29.54;99406.13;5111542;28;20225;-61
2022/07/22 06:12:27;;;;;;;17.13;10.65;;;;;;;38.96;30.22;99401.50;5111887;28;20317;-61
2022/07/22 06:14:54;;;;;;;24.77;10.88;;;;;;;39.00;30.68;99410.88;5111600;28;20243;-61
2022/07/22 06:17:21;;;;;;;21.23;11.65;;;;;;;39.32;30.03;99403.28;5111348;28;20240;-55
2022/07/22 06:19:48;;;;;;;19.40;12.00;;;;;;;38.56;30.80;99403.94;5102656;28;20219;-56
2022/07/22 06:22:17;;;;;;;14.70;11.00;;;;;;;38.52;30.30;99405.41;5069559;28;20665;-56
2022/07/22 06:24:44;;;;;;;18.13;10.85;;;;;;;39.10;29.85;99410.31;5070889;28;20219;-56
2022/07/22 06:27:11;;;;;;;12.82;9.88;;;;;;;39.21;28.93;99406.81;5071302;28;20191;-56
2022/07/22 06:29:40;;;;;;;15.52;10.80;;;;;;;39.31;29.51;99406.22;5071332;28;20199;-56
2022/07/22 06:32:07;;;;;;;12.43;10.07;;;;;;;40.12;28.16;99406.31;5071037;28;20199;-56
2022/07/22 06:34:34;;;;;;;14.52;10.52;;;;;;;39.54;27.96;99404.41;5071004;28;20287;-55
2022/07/22 06:37:01;;;;;;;12.43;10.30;;;;;;;38.86;28.90;99402.06;5071151;28;20667;-55
2022/07/22 06:39:28;;;;;;;13.70;10.18;;;;;;;38.55;29.77;99387.88;5071254;28;20592;-57
2022/07/22 06:41:55;;;;;;;13.27;10.57;;;;;;;38.95;29.17;99399.84;5070384;28;20195;-55
2022/07/22 06:44:22;;;;;;;19.65;10.27;;;;;;;38.70;29.00;99399.16;5074919;28;20298;-57
2022/07/22 06:46:50;;;;;;;11.15;9.63;;;;;;;38.97;28.76;99397.75;5075176;28;20199;-57
2022/07/22 06:49:17;;;;;;;16.00;9.93;;;;;;;39.07;28.90;99392.59;5069249;28;20457;-57
2022/07/22 06:51:44;;;;;;;10.80;9.85;;;;;;;39.23;28.63;99396.53;5070299;28;20199;-57
2022/07/22 06:54:11;;;;;;;13.18;9.63;;;;;;;38.79;29.41;99386.94;5070194;28;20217;-56
2022/07/22 06:56:38;;;;;;;11.98;9.55;;;;;;;38.69;29.05;99401.06;5073826;28;20297;-55
2022/07/22 06:59:05;;;;;;;10.95;9.40;;;;;;;38.22;29.15;99399.94;5081756;28;20219;-55
2022/07/22 07:01:31;;;;;;;9.65;8.57;;;;;;;38.14;29.67;99394.81;5069742;28;20327;-55
2022/07/22 07:04:00;;;;;;;9.95;8.73;;;;;;;38.69;29.25;99395.63;5069084;28;20237;-55
2022/07/22 07:06:27;;;;;;;15.40;10.63;;;;;;;38.28;29.76;99393.59;5069966;28;20209;-55
2022/07/22 07:08:54;;;;;;;14.05;10.48;;;;;;;38.02;30.04;99389.28;5084871;28;20286;-56
2022/07/22 07:11:21;;;;;;;11.07;10.00;;;;;;;38.40;29.14;99399.06;5097718;28;20247;-55
2022/07/22 07:13:47;;;;;;;16.27;10.93;;;;;;;38.55;29.21;99398.72;5110404;28;20228;-56
2022/07/22 07:16:14;;;;;;;11.48;8.35;;;;;;;38.58;30.35;99399.13;5110477;28;20214;-55
2022/07/22 07:18:41;;;;;;;12.88;8.05;;;;;;;38.70;29.28;99402.72;5110492;28;20224;-56
2022/07/22 07:21:10;;;;;;;8.35;7.40;;;;;;;38.86;28.93;99402.06;5109741;28;20578;-56
2022/07/22 07:23:37;;;;;;;13.75;8.27;;;;;;;38.70;28.77;99404.59;5110266;28;20308;-55
2022/07/22 07:26:04;;;;;;;13.20;8.20;;;;;;;38.65;29.06;99405.28;5099310;28;20606;-56
2022/07/22 07:28:31;;;;;;;9.85;8.10;;;;;;;38.69;28.91;99401.06;5069878;28;20619;-59
2022/07/22 07:30:58;;;;;;;14.98;8.32;;;;;;;38.65;28.60;99413.41;5069358;28;20223;-56
2022/07/22 07:33:25;;;;;;;8.38;6.78;;;;;;;38.33;28.76;99401.06;5069461;28;20248;-54
2022/07/22 07:35:52;;;;;;;10.75;7.68;;;;;;;37.97;29.71;99391.81;5068758;28;20215;-54
2022/07/22 07:38:20;;;;;;;11.05;7.85;;;;;;;38.36;28.80;99396.00;5069165;28;20223;-53
2022/07/22 07:40:47;;;;;;;8.63;7.20;;;;;;;38.03;29.34;99390.09;5087867;28;20226;-59
2022/07/22 07:43:14;;;;;;;8.95;6.85;;;;;;;38.52;29.06;99397.25;5109672;28;20321;-55
2022/07/22 07:45:41;;;;;;;12.90;7.57;;;;;;;38.53;29.43;99392.69;5109652;28;20241;-55
2022/07/22 07:48:08;;;;;;;8.75;7.78;;;;;;;38.78;28.96;99377.13;5109787;28;20237;-55
2022/07/22 07:50:35;;;;;;;16.83;7.32;;;;;;;39.44;28.00;99398.72;5089521;28;20225;-55
2022/07/22 07:53:02;;;;;;;8.32;6.65;;;;;;;39.53;27.74;99408.19;5089458;28;20568;-55
2022/07/22 07:55:30;;;;;;;14.57;8.10;;;;;;;39.79;27.56;99400.66;5085635;28;20221;-55
2022/07/22 07:57:57;;;;;;;8.43;7.68;;;;;;;40.62;26.68;99408.50;5087310;28;20208;-56
2022/07/22 08:00:28;;;;;;;8.90;8.23;;;;;;;41.10;25.89;99408.06;5109395;28;20198;-55
2022/07/22 08:02:56;;;;;;;9.00;8.10;;;;;;;41.65;25.34;99410.94;5103262;28;20247;-56
2022/07/22 08:05:23;;;;;;;9.20;8.30;;;;;;;41.33;25.66;99402.50;5107627;28;20229;-56
2022/07/22 08:07:50;;;;;;;8.63;7.75;;;;;;;41.38;25.84;99399.03;5108526;28;20448;-56
2022/07/22 08:10:18;;;;;;;8.32;7.38;;;;;;;41.53;25.50;99398.47;5107580;28;20200;-55
2022/07/22 08:12:46;;;;;;;8.40;7.65;;;;;;;41.87;25.50;99400.13;5108562;28;20200;-56
2022/07/22 08:15:13;;;;;;;8.93;8.15;;;;;;;42.16;24.77;99395.38;5109999;28;20192;-55
2022/07/22 08:17:43;;;;;;;10.75;8.40;;;;;;;41.80;24.28;99391.28;5109645;28;20412;-56
2022/07/22 08:20:10;;;;;;;13.10;8.48;;;;;;;42.19;24.50;99391.31;5109790;28;20280;-55
2022/07/22 08:22:37;;;;;;;10.18;8.38;;;;;;;41.83;24.38;99384.50;5109572;28;20193;-56
2022/07/22 08:25:05;;;;;;;9.07;8.38;;;;;;;42.27;23.96;99385.41;5109868;28;20708;-55
2022/07/22 08:27:32;;;;;;;12.68;8.18;;;;;;;42.85;23.71;99392.97;5109566;28;20225;-56
2022/07/22 08:30:04;;;;;;;9.98;8.93;;;;;;;41.92;23.66;99394.72;5109796;28;20285;-56
2022/07/22 08:32:31;;;;;;;10.55;8.43;;;;;;;41.62;24.99;99384.22;5109567;28;20250;-56
2022/07/22 08:34:58;;;;;;;9.93;8.73;;;;;;;41.50;24.95;99378.00;5109662;28;20202;-55
2022/07/22 08:37:25;;;;;;;12.75;9.68;;;;;;;40.80;25.59;99388.44;5109362;28;20200;-56
2022/07/22 08:39:53;;;;;;;13.10;8.85;;;;;;;40.49;25.82;99389.72;5109888;28;20194;-56
2022/07/22 08:42:21;;;;;;;10.80;8.75;;;;;;;40.07;26.18;99387.16;5109513;28;20201;-55
2022/07/22 08:44:48;;;;;;;9.50;8.73;;;;;;;39.76;26.38;99380.19;5109698;28;20749;-56
2022/07/22 08:47:21;;;;;;;9.77;9.00;;;;;;;39.14;26.88;99362.66;5109415;28;20324;-55
2022/07/22 08:49:49;;;;;;;9.65;8.75;;;;;;;39.41;27.26;99382.91;5109483;28;20705;-56
2022/07/22 08:52:16;;;;;;;10.60;9.63;;;;;;;39.46;27.12;99382.19;5109766;28;20722;-56
2022/07/22 08:54:43;;;;;;;11.50;10.30;;;;;;;39.15;27.95;99377.88;5109427;28;20194;-55
2022/07/22 08:57:10;;;;;;;20.52;10.30;;;;;;;39.51;27.53;99385.84;5109447;28;20198;-56
2022/07/22 08:59:50;;;;;;;12.85;9.98;;;;;;;39.50;26.73;99383.41;5109489;28;20194;-56
2022/07/22 09:02:18;;;;;;;10.93;9.35;;;;;;;39.04;27.90;99381.38;5109249;28;20200;-56
2022/07/22 09:04:54;;;;;;;39.60;20.48;;;;;;;39.31;27.49;99387.22;5109441;28;20232;-55
2022/07/22 09:07:29;;;;;;;12.18;10.82;;;;;;;39.05;27.53;99383.03;5113146;28;20689;-55
2022/07/22 09:09:57;;;;;;;11.27;10.07;;;;;;;39.20;27.48;99380.69;5113157;28;20197;-56
2022/07/22 09:12:24;;;;;;;11.43;9.45;;;;;;;39.26;27.28;99387.09;5112953;28;20201;-57
2022/07/22 09:14:53;;;;;;;13.35;10.05;;;;;;;39.20;27.18;99378.81;5113056;28;20646;-56
2022/07/22 09:17:29;;;;;;;13.20;9.55;;;;;;;39.05;27.19;99378.44;5113472;28;20582;-55
2022/07/22 09:19:57;;;;;;;11.07;9.88;;;;;;;39.27;27.15;99375.19;5113200;28;20675;-56
2022/07/22 09:22:42;;;;;;;12.63;9.10;;;;;;;39.51;26.88;99387.75;5113054;28;20683;-55
2022/07/22 09:25:21;;;;;;;16.17;10.23;;;;;;;39.64;26.79;99386.69;5112659;28;20787;-55
2022/07/22 09:27:49;;;;;;;11.52;9.93;;;;;;;39.65;26.09;99385.63;5112973;28;20198;-54
2022/07/22 09:30:18;;;;;;;13.10;9.70;;;;;;;39.70;26.77;99386.59;5112691;28;20192;-63
2022/07/22 09:32:47;;;;;;;12.45;10.63;;;;;;;39.46;26.46;99379.50;5112778;28;20202;-63
2022/07/22 09:35:15;;;;;;;14.00;10.60;;;;;;;39.63;26.45;99368.72;5112780;28;20675;-63
2022/07/22 09:37:53;;;;;;;13.00;10.35;;;;;;;39.86;25.97;99377.75;5112442;28;20205;-64
2022/07/22 09:40:22;;;;;;;17.17;12.27;;;;;;;39.90;26.05;99375.38;5112858;28;20194;-63
2022/07/22 09:42:51;;;;;;;10.55;9.55;;;;;;;39.83;26.10;99375.50;5112650;28;20668;-62
2022/07/22 09:45:20;;;;;;;14.23;11.15;;;;;;;39.81;26.30;99366.75;5112286;28;20309;-63
2022/07/22 09:47:49;;;;;;;14.15;11.13;;;;;;;39.99;25.97;99368.50;5112269;28;20232;-63
2022/07/22 09:50:22;;;;;;;16.13;13.00;;;;;;;40.29;26.05;99364.84;5112379;28;20693;-63
2022/07/22 09:52:50;;;;;;;12.25;11.07;;;;;;;40.16;26.02;99369.44;5112256;28;20198;-63
2022/07/22 09:55:19;;;;;;;17.67;12.38;;;;;;;40.24;25.84;99371.78;5112368;28;20667;-54
2022/07/22 09:57:46;;;;;;;14.35;12.95;;;;;;;40.17;25.92;99371.09;5112239;28;20190;-56
2022/07/22 10:00:15;;;;;;;17.65;10.82;;;;;;;40.17;26.02;99365.66;5112212;28;20200;-63
2022/07/22 10:02:48;;;;;;;14.82;10.70;;;;;;;40.22;25.87;99368.47;5112001;28;20202;-63
2022/07/22 10:05:17;;;;;;;12.75;11.52;;;;;;;40.06;25.83;99363.78;5112444;28;20225;-64
2022/07/22 10:07:46;;;;;;;13.93;11.18;;;;;;;40.24;26.01;99358.19;5112196;28;20190;-63
2022/07/22 10:10:16;;;;;;;15.63;11.88;;;;;;;39.98;26.26;99360.59;5111863;28;20194;-62
2022/07/22 10:12:44;;;;;;;17.90;16.05;;;;;;;39.62;26.59;99353.53;5111941;28;20202;-64
2022/07/22 10:15:13;;;;;;;15.38;13.20;;;;;;;39.31;26.67;99355.47;5111738;28;20198;-63
2022/07/22 10:17:43;;;;;;;13.75;12.30;;;;;;;39.05;26.61;99351.31;5110802;28;20194;-63
2022/07/22 10:20:13;;;;;;;18.83;12.45;;;;;;;38.97;27.36;99348.06;5111904;28;20197;-63
2022/07/22 10:22:52;;;;;;;17.42;13.25;;;;;;;38.99;27.33;99349.50;5111734;28;20240;-63
2022/07/22 10:25:20;;;;;;;21.90;13.63;;;;;;;38.39;27.45;99337.75;5111664;28;20383;-63
2022/07/22 10:27:49;;;;;;;14.75;12.93;;;;;;;38.07;28.58;99334.38;5111749;28;20304;-64
2022/07/22 10:30:18;;;;;;;14.77;13.13;;;;;;;37.86;28.21;99338.38;5111715;28;20196;-64
2022/07/22 10:32:45;;;;;;;14.88;11.43;;;;;;;37.43;28.90;99322.94;5111636;28;20209;-63
2022/07/22 10:35:26;;;;;;;13.45;11.57;;;;;;;37.42;28.66;99321.28;5111457;28;20200;-63
2022/07/22 10:37:56;;;;;;;13.45;12.20;;;;;;;37.29;29.09;99329.50;5111453;28;20194;-63
2022/07/22 10:40:25;;;;;;;17.15;12.48;;;;;;;37.39;29.18;99318.16;5111335;28;20205;-64
2022/07/22 10:43:09;;;;;;;14.15;12.57;;;;;;;37.47;29.06;99323.31;5111183;28;20292;-63
2022/07/22 10:45:39;;;;;;;17.20;12.80;;;;;;;37.41;28.79;99306.06;5109581;28;20725;-64
2022/07/22 10:48:09;;;;;;;29.23;26.08;;;;;;;37.34;29.08;99315.31;5111207;28;20250;-63
2022/07/22 10:50:49;;;;;;;17.95;14.73;;;;;;;37.15;28.92;99313.56;5111265;28;20217;-64
2022/07/22 10:53:19;;;;;;;20.25;12.23;;;;;;;37.01;29.41;99319.09;5110918;28;20231;-63
2022/07/22 10:56:01;;;;;;;16.65;12.43;;;;;;;36.94;28.91;99315.59;5111195;28;20202;-64
2022/07/22 10:58:56;;;;;;;13.52;11.75;;;;;;;36.48;29.74;99315.84;5111130;28;20286;-63
2022/07/22 11:01:27;;;;;;;12.82;11.60;;;;;;;36.52;29.84;99300.88;5063631;28;20238;-64
2022/07/22 11:03:55;;;;;;;14.88;11.75;;;;;;;36.46;30.01;99306.31;5110886;28;20204;-64
2022/07/22 11:06:26;;;;;;;12.95;11.35;;;;;;;36.49;30.34;99313.97;5110737;28;20228;-63
2022/07/22 11:08:54;;;;;;;12.07;10.73;;;;;;;36.47;29.93;99308.78;5110968;28;20671;-64
2022/07/22 11:11:38;;;;;;;12.30;9.82;;;;;;;36.44;29.41;99303.81;5110726;28;20206;-63
2022/07/22 11:14:11;;;;;;;10.27;8.95;;;;;;;36.55;28.81;99308.56;5110914;28;20247;-63
2022/07/22 11:16:38;;;;;;;9.55;8.75;;;;;;;36.56;28.95;99296.69;5110712;28;20186;-63
2022/07/22 11:19:06;;;;;;;11.52;8.43;;;;;;;36.64;28.71;99301.84;5110597;28;20284;-63
2022/07/22 11:21:35;;;;;;;9.60;8.73;;;;;;;36.66;28.78;99297.03;5110896;28;20202;-63
2022/07/22 11:24:04;;;;;;;10.20;8.25;;;;;;;36.80;28.11;99297.00;5110434;28;20198;-63
2022/07/22 11:26:37;;;;;;;9.73;8.82;;;;;;;36.67;28.32;99285.19;5110486;28;20214;-63
2022/07/22 11:29:04;;;;;;;9.80;8.82;;;;;;;36.75;28.16;99296.81;5110448;28;20191;-64